sensor_id;sensor_type;location;lat;lon;timestamp;P1;durP1;ratioP1;P2;durP2;ratioP2
78844;SDS011;68195;50.854;2.860;2023-05-10T00:02:15;17.92;;;9.10;;
78844;SDS011;68195;50.854;2.860;2023-05-10T00:07:06;14.17;;;8.00;;
78844;SDS011;68195;50.854;2.860;2023-05-10T00:11:57;12.53;;;7.67;;
78844;SDS011;68195;50.854;2.860;2023-05-10T00:14:23;12.95;;;6.82;;
78844;SDS011;68195;50.854;2.860;2023-05-10T00:19:14;17.95;;;8.07;;
78844;SDS011;68195;50.854;2.860;2023-05-10T00:24:04;13.80;;;7.03;;
78844;SDS011;68195;50.854;2.860;2023-05-10T00:28:55;12.47;;;7.00;;
78844;SDS011;68195;50.854;2.860;2023-05-10T00:31:23;13.02;;;7.45;;
78844;SDS011;68195;50.854;2.860;2023-05-10T00:36:16;12.88;;;7.38;;
78844;SDS011;68195;50.854;2.860;2023-05-10T00:41:09;11.90;;;7.15;;
78844;SDS011;68195;50.854;2.860;2023-05-10T00:43:37;9.88;;;6.15;;
78844;SDS011;68195;50.854;2.860;2023-05-10T00:46:02;7.97;;;6.25;;
78844;SDS011;68195;50.854;2.860;2023-05-10T00:48:29;11.98;;;6.43;;
78844;SDS011;68195;50.854;2.860;2023-05-10T00:53:20;11.13;;;5.90;;
78844;SDS011;68195;50.854;2.860;2023-05-10T00:58:12;13.13;;;8.20;;
78844;SDS011;68195;50.854;2.860;2023-05-10T01:03:13;16.58;;;10.15;;
78844;SDS011;68195;50.854;2.860;2023-05-10T01:05:42;18.45;;;10.48;;
78844;SDS011;68195;50.854;2.860;2023-05-10T01:08:12;19.10;;;10.68;;
78844;SDS011;68195;50.854;2.860;2023-05-10T01:10:40;19.25;;;9.85;;
78844;SDS011;68195;50.854;2.860;2023-05-10T01:13:07;20.50;;;10.52;;
78844;SDS011;68195;50.854;2.860;2023-05-10T01:17:59;17.50;;;10.98;;
78844;SDS011;68195;50.854;2.860;2023-05-10T01:20:29;16.98;;;10.15;;
78844;SDS011;68195;50.854;2.860;2023-05-10T01:23:09;19.58;;;10.27;;
78844;SDS011;68195;50.854;2.860;2023-05-10T01:28:40;18.67;;;9.93;;
78844;SDS011;68195;50.854;2.860;2023-05-10T01:31:48;18.55;;;9.80;;
78844;SDS011;68195;50.854;2.860;2023-05-10T01:34:27;13.05;;;8.40;;
78844;SDS011;68195;50.854;2.860;2023-05-10T01:37:07;14.05;;;8.05;;
78844;SDS011;68195;50.854;2.860;2023-05-10T01:39:44;16.02;;;9.60;;
78844;SDS011;68195;50.854;2.860;2023-05-10T01:42:16;16.40;;;9.15;;
78844;SDS011;68195;50.854;2.860;2023-05-10T01:47:17;13.23;;;7.37;;
78844;SDS011;68195;50.854;2.860;2023-05-10T01:49:50;14.82;;;9.70;;
78844;SDS011;68195;50.854;2.860;2023-05-10T01:52:22;13.73;;;8.32;;
78844;SDS011;68195;50.854;2.860;2023-05-10T01:55:06;14.45;;;8.65;;
78844;SDS011;68195;50.854;2.860;2023-05-10T01:57:35;19.48;;;10.23;;
78844;SDS011;68195;50.854;2.860;2023-05-10T02:00:02;20.05;;;11.18;;
78844;SDS011;68195;50.854;2.860;2023-05-10T02:02:33;16.98;;;11.80;;
78844;SDS011;68195;50.854;2.860;2023-05-10T02:05:03;23.35;;;12.65;;
78844;SDS011;68195;50.854;2.860;2023-05-10T02:07:30;25.92;;;13.10;;
78844;SDS011;68195;50.854;2.860;2023-05-10T02:09:58;22.13;;;13.13;;
78844;SDS011;68195;50.854;2.860;2023-05-10T02:12:26;26.85;;;12.90;;
78844;SDS011;68195;50.854;2.860;2023-05-10T02:14:54;20.02;;;11.02;;
78844;SDS011;68195;50.854;2.860;2023-05-10T02:19:46;15.63;;;10.32;;
78844;SDS011;68195;50.854;2.860;2023-05-10T02:22:12;22.17;;;10.60;;
78844;SDS011;68195;50.854;2.860;2023-05-10T02:24:39;16.58;;;11.40;;
78844;SDS011;68195;50.854;2.860;2023-05-10T02:27:06;20.65;;;11.15;;
78844;SDS011;68195;50.854;2.860;2023-05-10T02:29:33;17.20;;;9.32;;
78844;SDS011;68195;50.854;2.860;2023-05-10T02:32:00;18.23;;;10.60;;
78844;SDS011;68195;50.854;2.860;2023-05-10T02:34:27;20.33;;;10.60;;
78844;SDS011;68195;50.854;2.860;2023-05-10T02:36:53;20.75;;;10.02;;
78844;SDS011;68195;50.854;2.860;2023-05-10T02:39:22;17.90;;;9.73;;
78844;SDS011;68195;50.854;2.860;2023-05-10T02:41:49;20.13;;;11.00;;
78844;SDS011;68195;50.854;2.860;2023-05-10T02:44:19;21.80;;;10.15;;
78844;SDS011;68195;50.854;2.860;2023-05-10T02:46:50;17.30;;;9.75;;
78844;SDS011;68195;50.854;2.860;2023-05-10T02:51:42;20.30;;;10.05;;
78844;SDS011;68195;50.854;2.860;2023-05-10T02:54:15;22.40;;;10.65;;
78844;SDS011;68195;50.854;2.860;2023-05-10T02:56:51;20.92;;;9.48;;
78844;SDS011;68195;50.854;2.860;2023-05-10T02:59:32;23.05;;;10.98;;
78844;SDS011;68195;50.854;2.860;2023-05-10T03:04:24;19.70;;;8.77;;
78844;SDS011;68195;50.854;2.860;2023-05-10T03:06:50;18.83;;;10.13;;
78844;SDS011;68195;50.854;2.860;2023-05-10T03:09:17;16.80;;;9.23;;
78844;SDS011;68195;50.854;2.860;2023-05-10T03:17:15;22.90;;;9.00;;
78844;SDS011;68195;50.854;2.860;2023-05-10T03:19:57;21.42;;;9.70;;
78844;SDS011;68195;50.854;2.860;2023-05-10T03:22:40;17.27;;;8.88;;
78844;SDS011;68195;50.854;2.860;2023-05-10T03:25:10;19.92;;;9.75;;
78844;SDS011;68195;50.854;2.860;2023-05-10T03:27:40;19.13;;;8.95;;
78844;SDS011;68195;50.854;2.860;2023-05-10T03:30:08;17.55;;;8.70;;
78844;SDS011;68195;50.854;2.860;2023-05-10T03:32:39;17.00;;;9.07;;
78844;SDS011;68195;50.854;2.860;2023-05-10T03:35:08;23.13;;;10.13;;
78844;SDS011;68195;50.854;2.860;2023-05-10T03:37:33;19.45;;;9.52;;
78844;SDS011;68195;50.854;2.860;2023-05-10T03:40:00;18.45;;;9.93;;
78844;SDS011;68195;50.854;2.860;2023-05-10T03:42:28;21.08;;;9.60;;
78844;SDS011;68195;50.854;2.860;2023-05-10T03:44:56;17.90;;;9.45;;
78844;SDS011;68195;50.854;2.860;2023-05-10T03:47:22;22.48;;;10.13;;
78844;SDS011;68195;50.854;2.860;2023-05-10T03:52:15;22.42;;;10.30;;
78844;SDS011;68195;50.854;2.860;2023-05-10T03:57:05;19.50;;;10.13;;
78844;SDS011;68195;50.854;2.860;2023-05-10T04:01:56;21.27;;;10.27;;
78844;SDS011;68195;50.854;2.860;2023-05-10T04:06:48;18.67;;;11.00;;
78844;SDS011;68195;50.854;2.860;2023-05-10T04:09:13;22.77;;;10.70;;
78844;SDS011;68195;50.854;2.860;2023-05-10T04:14:06;27.88;;;11.60;;
78844;SDS011;68195;50.854;2.860;2023-05-10T04:16:37;21.88;;;9.23;;
78844;SDS011;68195;50.854;2.860;2023-05-10T04:19:02;23.73;;;11.07;;
78844;SDS011;68195;50.854;2.860;2023-05-10T04:21:28;20.35;;;10.40;;
78844;SDS011;68195;50.854;2.860;2023-05-10T04:26:19;21.87;;;10.33;;
78844;SDS011;68195;50.854;2.860;2023-05-10T04:28:45;21.10;;;11.15;;
78844;SDS011;68195;50.854;2.860;2023-05-10T04:33:38;25.17;;;11.02;;
78844;SDS011;68195;50.854;2.860;2023-05-10T04:36:04;20.02;;;11.50;;
78844;SDS011;68195;50.854;2.860;2023-05-10T04:41:03;24.85;;;11.27;;
78844;SDS011;68195;50.854;2.860;2023-05-10T04:43:32;19.83;;;11.77;;
78844;SDS011;68195;50.854;2.860;2023-05-10T04:48:25;21.90;;;10.93;;
78844;SDS011;68195;50.854;2.860;2023-05-10T04:50:53;24.60;;;11.07;;
78844;SDS011;68195;50.854;2.860;2023-05-10T04:53:21;21.05;;;11.73;;
78844;SDS011;68195;50.854;2.860;2023-05-10T04:55:46;23.48;;;10.65;;
78844;SDS011;68195;50.854;2.860;2023-05-10T04:58:12;20.13;;;11.40;;
78844;SDS011;68195;50.854;2.860;2023-05-10T05:00:38;27.52;;;11.25;;
78844;SDS011;68195;50.854;2.860;2023-05-10T05:05:32;20.70;;;11.30;;
78844;SDS011;68195;50.854;2.860;2023-05-10T05:07:57;25.20;;;10.98;;
78844;SDS011;68195;50.854;2.860;2023-05-10T05:10:23;19.92;;;10.18;;
78844;SDS011;68195;50.854;2.860;2023-05-10T05:15:14;23.60;;;10.00;;
78844;SDS011;68195;50.854;2.860;2023-05-10T05:17:42;20.65;;;10.30;;
78844;SDS011;68195;50.854;2.860;2023-05-10T05:20:12;20.20;;;11.63;;
78844;SDS011;68195;50.854;2.860;2023-05-10T05:22:40;24.20;;;11.18;;
78844;SDS011;68195;50.854;2.860;2023-05-10T05:25:06;19.38;;;11.32;;
78844;SDS011;68195;50.854;2.860;2023-05-10T05:29:57;22.73;;;9.80;;
78844;SDS011;68195;50.854;2.860;2023-05-10T05:34:49;18.98;;;9.43;;
78844;SDS011;68195;50.854;2.860;2023-05-10T05:37:15;19.92;;;10.98;;
78844;SDS011;68195;50.854;2.860;2023-05-10T05:39:43;20.75;;;10.63;;
78844;SDS011;68195;50.854;2.860;2023-05-10T05:42:10;18.67;;;10.15;;
78844;SDS011;68195;50.854;2.860;2023-05-10T05:44:37;20.05;;;9.93;;
78844;SDS011;68195;50.854;2.860;2023-05-10T05:47:03;19.35;;;11.07;;
78844;SDS011;68195;50.854;2.860;2023-05-10T05:51:54;16.10;;;8.98;;
78844;SDS011;68195;50.854;2.860;2023-05-10T05:54:25;17.13;;;9.02;;
78844;SDS011;68195;50.854;2.860;2023-05-10T05:59:18;21.30;;;10.45;;
78844;SDS011;68195;50.854;2.860;2023-05-10T06:04:09;17.85;;;10.07;;
78844;SDS011;68195;50.854;2.860;2023-05-10T06:06:37;16.80;;;10.07;;
78844;SDS011;68195;50.854;2.860;2023-05-10T06:11:27;18.60;;;10.00;;
78844;SDS011;68195;50.854;2.860;2023-05-10T06:13:53;19.60;;;10.05;;
78844;SDS011;68195;50.854;2.860;2023-05-10T06:18:46;17.55;;;9.80;;
78844;SDS011;68195;50.854;2.860;2023-05-10T06:23:37;17.27;;;9.63;;
78844;SDS011;68195;50.854;2.860;2023-05-10T06:26:04;16.98;;;9.07;;
78844;SDS011;68195;50.854;2.860;2023-05-10T06:30:57;13.35;;;9.07;;
78844;SDS011;68195;50.854;2.860;2023-05-10T06:33:25;19.73;;;9.35;;
78844;SDS011;68195;50.854;2.860;2023-05-10T06:38:18;15.87;;;9.40;;
78844;SDS011;68195;50.854;2.860;2023-05-10T06:40:46;19.15;;;10.10;;
78844;SDS011;68195;50.854;2.860;2023-05-10T06:43:14;18.75;;;10.65;;
78844;SDS011;68195;50.854;2.860;2023-05-10T06:48:05;20.95;;;10.57;;
78844;SDS011;68195;50.854;2.860;2023-05-10T06:52:57;21.02;;;11.68;;
78844;SDS011;68195;50.854;2.860;2023-05-10T06:57:48;16.75;;;9.85;;
78844;SDS011;68195;50.854;2.860;2023-05-10T07:02:41;22.73;;;10.88;;
78844;SDS011;68195;50.854;2.860;2023-05-10T07:05:09;20.80;;;11.85;;
78844;SDS011;68195;50.854;2.860;2023-05-10T07:10:00;21.98;;;11.25;;
78844;SDS011;68195;50.854;2.860;2023-05-10T07:14:51;18.30;;;11.53;;
78844;SDS011;68195;50.854;2.860;2023-05-10T07:19:44;19.65;;;11.43;;
78844;SDS011;68195;50.854;2.860;2023-05-10T07:22:11;21.17;;;12.52;;
78844;SDS011;68195;50.854;2.860;2023-05-10T07:27:03;19.83;;;12.70;;
78844;SDS011;68195;50.854;2.860;2023-05-10T07:29:31;23.83;;;13.52;;
78844;SDS011;68195;50.854;2.860;2023-05-10T07:31:58;26.52;;;14.32;;
78844;SDS011;68195;50.854;2.860;2023-05-10T07:34:26;25.77;;;13.15;;
78844;SDS011;68195;50.854;2.860;2023-05-10T07:39:19;26.27;;;14.23;;
78844;SDS011;68195;50.854;2.860;2023-05-10T07:41:47;23.13;;;14.05;;
78844;SDS011;68195;50.854;2.860;2023-05-10T07:44:17;25.95;;;14.60;;
78844;SDS011;68195;50.854;2.860;2023-05-10T07:46:45;21.88;;;13.70;;
78844;SDS011;68195;50.854;2.860;2023-05-10T07:49:14;25.15;;;14.45;;
78844;SDS011;68195;50.854;2.860;2023-05-10T07:54:07;24.50;;;14.25;;
78844;SDS011;68195;50.854;2.860;2023-05-10T07:58:58;24.63;;;14.93;;
78844;SDS011;68195;50.854;2.860;2023-05-10T08:01:24;27.45;;;15.77;;
78844;SDS011;68195;50.854;2.860;2023-05-10T08:03:51;24.98;;;15.57;;
78844;SDS011;68195;50.854;2.860;2023-05-10T08:06:18;23.75;;;15.07;;
78844;SDS011;68195;50.854;2.860;2023-05-10T08:08:47;24.13;;;13.93;;
78844;SDS011;68195;50.854;2.860;2023-05-10T08:11:14;24.23;;;15.55;;
78844;SDS011;68195;50.854;2.860;2023-05-10T08:13:41;23.23;;;13.70;;
78844;SDS011;68195;50.854;2.860;2023-05-10T08:18:32;18.77;;;12.95;;
78844;SDS011;68195;50.854;2.860;2023-05-10T08:23:22;21.00;;;14.13;;
78844;SDS011;68195;50.854;2.860;2023-05-10T08:28:15;22.83;;;13.70;;
78844;SDS011;68195;50.854;2.860;2023-05-10T08:33:06;23.03;;;14.17;;
78844;SDS011;68195;50.854;2.860;2023-05-10T08:38:00;19.20;;;12.80;;
78844;SDS011;68195;50.854;2.860;2023-05-10T08:40:28;20.40;;;12.10;;
78844;SDS011;68195;50.854;2.860;2023-05-10T08:45:23;21.65;;;14.57;;
78844;SDS011;68195;50.854;2.860;2023-05-10T08:47:50;21.15;;;14.07;;
78844;SDS011;68195;50.854;2.860;2023-05-10T08:50:19;25.92;;;15.18;;
78844;SDS011;68195;50.854;2.860;2023-05-10T08:52:55;22.02;;;15.82;;
78844;SDS011;68195;50.854;2.860;2023-05-10T08:55:24;26.90;;;17.13;;
78844;SDS011;68195;50.854;2.860;2023-05-10T09:00:15;26.42;;;18.02;;
78844;SDS011;68195;50.854;2.860;2023-05-10T09:02:41;22.38;;;16.60;;
78844;SDS011;68195;50.854;2.860;2023-05-10T09:05:08;25.48;;;17.30;;
78844;SDS011;68195;50.854;2.860;2023-05-10T09:07:37;25.33;;;15.95;;
78844;SDS011;68195;50.854;2.860;2023-05-10T09:10:02;23.15;;;15.82;;
78844;SDS011;68195;50.854;2.860;2023-05-10T09:12:31;25.45;;;16.67;;
78844;SDS011;68195;50.854;2.860;2023-05-10T09:17:24;20.40;;;14.40;;
78844;SDS011;68195;50.854;2.860;2023-05-10T09:22:22;22.20;;;14.25;;
78844;SDS011;68195;50.854;2.860;2023-05-10T09:27:30;19.65;;;13.55;;
78844;SDS011;68195;50.854;2.860;2023-05-10T09:30:00;22.58;;;12.80;;
78844;SDS011;68195;50.854;2.860;2023-05-10T09:35:07;20.92;;;13.50;;
78844;SDS011;68195;50.854;2.860;2023-05-10T09:37:36;21.15;;;13.25;;
78844;SDS011;68195;50.854;2.860;2023-05-10T09:40:06;16.67;;;12.43;;
78844;SDS011;68195;50.854;2.860;2023-05-10T09:42:33;16.50;;;12.50;;
78844;SDS011;68195;50.854;2.860;2023-05-10T09:45:03;15.00;;;12.32;;
78844;SDS011;68195;50.854;2.860;2023-05-10T09:47:35;16.02;;;12.10;;
78844;SDS011;68195;50.854;2.860;2023-05-10T09:50:03;15.35;;;11.73;;
78844;SDS011;68195;50.854;2.860;2023-05-10T09:55:17;18.73;;;13.23;;
78844;SDS011;68195;50.854;2.860;2023-05-10T09:57:44;17.42;;;13.88;;
78844;SDS011;68195;50.854;2.860;2023-05-10T10:00:13;19.20;;;14.40;;
78844;SDS011;68195;50.854;2.860;2023-05-10T10:02:54;24.02;;;15.15;;
78844;SDS011;68195;50.854;2.860;2023-05-10T10:05:27;20.42;;;13.80;;
78844;SDS011;68195;50.854;2.860;2023-05-10T10:07:59;20.10;;;14.50;;
78844;SDS011;68195;50.854;2.860;2023-05-10T10:10:28;18.67;;;13.68;;
78844;SDS011;68195;50.854;2.860;2023-05-10T10:12:54;19.33;;;13.82;;
78844;SDS011;68195;50.854;2.860;2023-05-10T10:17:45;23.20;;;14.07;;
78844;SDS011;68195;50.854;2.860;2023-05-10T10:20:11;21.65;;;12.85;;
78844;SDS011;68195;50.854;2.860;2023-05-10T10:25:04;16.42;;;11.43;;
78844;SDS011;68195;50.854;2.860;2023-05-10T10:35:58;15.52;;;10.25;;
78844;SDS011;68195;50.854;2.860;2023-05-10T10:39:26;14.35;;;8.60;;
78844;SDS011;68195;50.854;2.860;2023-05-10T10:41:33;13.27;;;9.00;;
78844;SDS011;68195;50.854;2.860;2023-05-10T10:49:43;14.88;;;8.65;;
78844;SDS011;68195;50.854;2.860;2023-05-10T10:52:26;13.63;;;7.25;;
78844;SDS011;68195;50.854;2.860;2023-05-10T10:57:27;14.30;;;6.95;;
78844;SDS011;68195;50.854;2.860;2023-05-10T11:02:52;11.35;;;5.70;;
78844;SDS011;68195;50.854;2.860;2023-05-10T11:05:44;10.05;;;5.93;;
78844;SDS011;68195;50.854;2.860;2023-05-10T11:08:11;8.27;;;5.43;;
78844;SDS011;68195;50.854;2.860;2023-05-10T11:10:37;11.32;;;6.28;;
78844;SDS011;68195;50.854;2.860;2023-05-10T11:13:04;12.23;;;6.50;;
78844;SDS011;68195;50.854;2.860;2023-05-10T11:15:31;9.27;;;6.05;;
78844;SDS011;68195;50.854;2.860;2023-05-10T11:17:58;10.50;;;5.57;;
78844;SDS011;68195;50.854;2.860;2023-05-10T11:20:27;11.45;;;5.70;;
78844;SDS011;68195;50.854;2.860;2023-05-10T11:23:10;10.35;;;5.57;;
78844;SDS011;68195;50.854;2.860;2023-05-10T11:25:41;8.40;;;4.25;;
78844;SDS011;68195;50.854;2.860;2023-05-10T11:28:08;6.65;;;3.78;;
78844;SDS011;68195;50.854;2.860;2023-05-10T11:32:58;6.57;;;3.83;;
78844;SDS011;68195;50.854;2.860;2023-05-10T11:35:24;7.10;;;2.80;;
78844;SDS011;68195;50.854;2.860;2023-05-10T11:37:54;5.72;;;1.80;;
78844;SDS011;68195;50.854;2.860;2023-05-10T11:40:23;6.80;;;2.00;;
78844;SDS011;68195;50.854;2.860;2023-05-10T11:42:55;4.03;;;1.42;;
78844;SDS011;68195;50.854;2.860;2023-05-10T11:45:23;4.53;;;2.03;;
78844;SDS011;68195;50.854;2.860;2023-05-10T11:47:51;5.20;;;1.98;;
78844;SDS011;68195;50.854;2.860;2023-05-10T11:50:17;5.63;;;2.53;;
78844;SDS011;68195;50.854;2.860;2023-05-10T11:52:47;7.68;;;2.90;;
78844;SDS011;68195;50.854;2.860;2023-05-10T11:55:18;5.75;;;3.15;;
78844;SDS011;68195;50.854;2.860;2023-05-10T11:57:46;8.35;;;3.60;;
78844;SDS011;68195;50.854;2.860;2023-05-10T12:00:16;8.38;;;3.65;;
78844;SDS011;68195;50.854;2.860;2023-05-10T12:02:44;6.38;;;3.47;;
78844;SDS011;68195;50.854;2.860;2023-05-10T12:05:11;9.15;;;3.88;;
78844;SDS011;68195;50.854;2.860;2023-05-10T12:07:38;7.45;;;3.50;;
78844;SDS011;68195;50.854;2.860;2023-05-10T12:10:06;5.43;;;1.95;;
78844;SDS011;68195;50.854;2.860;2023-05-10T12:15:03;6.05;;;2.00;;
78844;SDS011;68195;50.854;2.860;2023-05-10T12:17:32;4.97;;;2.08;;
78844;SDS011;68195;50.854;2.860;2023-05-10T12:20:16;6.18;;;2.38;;
78844;SDS011;68195;50.854;2.860;2023-05-10T12:22:47;6.03;;;3.30;;
78844;SDS011;68195;50.854;2.860;2023-05-10T12:25:22;7.78;;;2.40;;
78844;SDS011;68195;50.854;2.860;2023-05-10T12:27:53;5.63;;;2.33;;
78844;SDS011;68195;50.854;2.860;2023-05-10T12:30:24;4.03;;;2.33;;
78844;SDS011;68195;50.854;2.860;2023-05-10T12:32:51;3.97;;;2.67;;
78844;SDS011;68195;50.854;2.860;2023-05-10T12:35:19;5.38;;;2.65;;
78844;SDS011;68195;50.854;2.860;2023-05-10T12:37:49;10.20;;;4.70;;
78844;SDS011;68195;50.854;2.860;2023-05-10T12:40:16;5.05;;;2.00;;
78844;SDS011;68195;50.854;2.860;2023-05-10T12:42:43;4.63;;;1.77;;
78844;SDS011;68195;50.854;2.860;2023-05-10T12:45:12;5.53;;;1.70;;
78844;SDS011;68195;50.854;2.860;2023-05-10T12:47:40;4.95;;;1.50;;
78844;SDS011;68195;50.854;2.860;2023-05-10T12:50:07;3.92;;;1.77;;
78844;SDS011;68195;50.854;2.860;2023-05-10T12:52:33;5.03;;;1.63;;
78844;SDS011;68195;50.854;2.860;2023-05-10T12:55:01;4.20;;;1.40;;
78844;SDS011;68195;50.854;2.860;2023-05-10T12:57:30;6.60;;;2.72;;
78844;SDS011;68195;50.854;2.860;2023-05-10T12:59:58;5.75;;;1.85;;
78844;SDS011;68195;50.854;2.860;2023-05-10T13:02:23;5.15;;;1.55;;
78844;SDS011;68195;50.854;2.860;2023-05-10T13:04:49;5.35;;;1.85;;
78844;SDS011;68195;50.854;2.860;2023-05-10T13:07:14;6.90;;;2.70;;
78844;SDS011;68195;50.854;2.860;2023-05-10T13:09:40;5.43;;;2.42;;
78844;SDS011;68195;50.854;2.860;2023-05-10T13:12:05;3.42;;;1.58;;
78844;SDS011;68195;50.854;2.860;2023-05-10T13:14:31;3.83;;;1.92;;
78844;SDS011;68195;50.854;2.860;2023-05-10T13:16:57;5.18;;;1.77;;
78844;SDS011;68195;50.854;2.860;2023-05-10T13:19:22;3.92;;;1.65;;
78844;SDS011;68195;50.854;2.860;2023-05-10T13:21:50;4.82;;;1.42;;
78844;SDS011;68195;50.854;2.860;2023-05-10T13:24:15;7.30;;;2.17;;
78844;SDS011;68195;50.854;2.860;2023-05-10T13:26:42;3.42;;;1.30;;
78844;SDS011;68195;50.854;2.860;2023-05-10T13:29:08;5.30;;;1.98;;
78844;SDS011;68195;50.854;2.860;2023-05-10T13:31:36;6.15;;;1.45;;
78844;SDS011;68195;50.854;2.860;2023-05-10T13:34:04;4.18;;;2.03;;
78844;SDS011;68195;50.854;2.860;2023-05-10T13:36:30;4.75;;;2.30;;
78844;SDS011;68195;50.854;2.860;2023-05-10T13:38:56;4.35;;;1.50;;
78844;SDS011;68195;50.854;2.860;2023-05-10T13:41:26;4.38;;;1.50;;
78844;SDS011;68195;50.854;2.860;2023-05-10T13:43:54;3.83;;;1.83;;
78844;SDS011;68195;50.854;2.860;2023-05-10T13:46:19;4.30;;;1.85;;
78844;SDS011;68195;50.854;2.860;2023-05-10T13:48:47;5.82;;;2.25;;
78844;SDS011;68195;50.854;2.860;2023-05-10T13:51:13;5.28;;;2.00;;
78844;SDS011;68195;50.854;2.860;2023-05-10T13:53:38;6.35;;;2.20;;
78844;SDS011;68195;50.854;2.860;2023-05-10T13:56:04;5.70;;;2.92;;
78844;SDS011;68195;50.854;2.860;2023-05-10T13:58:34;6.68;;;2.60;;
78844;SDS011;68195;50.854;2.860;2023-05-10T14:01:01;7.20;;;2.33;;
78844;SDS011;68195;50.854;2.860;2023-05-10T14:03:26;4.68;;;2.20;;
78844;SDS011;68195;50.854;2.860;2023-05-10T14:05:54;6.10;;;2.20;;
78844;SDS011;68195;50.854;2.860;2023-05-10T14:08:19;4.88;;;2.17;;
78844;SDS011;68195;50.854;2.860;2023-05-10T14:10:48;6.68;;;2.53;;
78844;SDS011;68195;50.854;2.860;2023-05-10T14:13:14;5.20;;;2.33;;
78844;SDS011;68195;50.854;2.860;2023-05-10T14:15:42;5.22;;;2.20;;
78844;SDS011;68195;50.854;2.860;2023-05-10T14:18:08;9.13;;;2.40;;
78844;SDS011;68195;50.854;2.860;2023-05-10T14:20:33;7.43;;;2.45;;
78844;SDS011;68195;50.854;2.860;2023-05-10T14:22:59;4.93;;;2.88;;
78844;SDS011;68195;50.854;2.860;2023-05-10T14:25:27;9.95;;;3.15;;
78844;SDS011;68195;50.854;2.860;2023-05-10T14:27:55;6.10;;;2.53;;
78844;SDS011;68195;50.854;2.860;2023-05-10T14:30:22;7.40;;;2.20;;
78844;SDS011;68195;50.854;2.860;2023-05-10T14:32:50;4.43;;;2.50;;
78844;SDS011;68195;50.854;2.860;2023-05-10T14:35:17;8.65;;;2.60;;
78844;SDS011;68195;50.854;2.860;2023-05-10T14:37:45;5.75;;;2.17;;
78844;SDS011;68195;50.854;2.860;2023-05-10T14:40:13;7.13;;;2.30;;
78844;SDS011;68195;50.854;2.860;2023-05-10T14:42:40;4.25;;;1.90;;
78844;SDS011;68195;50.854;2.860;2023-05-10T14:45:08;6.65;;;2.00;;
78844;SDS011;68195;50.854;2.860;2023-05-10T14:47:34;4.78;;;1.92;;
78844;SDS011;68195;50.854;2.860;2023-05-10T14:50:00;7.30;;;2.65;;
78844;SDS011;68195;50.854;2.860;2023-05-10T14:52:27;8.05;;;3.28;;
78844;SDS011;68195;50.854;2.860;2023-05-10T14:54:58;6.38;;;2.17;;
78844;SDS011;68195;50.854;2.860;2023-05-10T14:57:26;4.93;;;2.40;;
78844;SDS011;68195;50.854;2.860;2023-05-10T14:59:54;7.43;;;2.22;;
78844;SDS011;68195;50.854;2.860;2023-05-10T15:02:22;6.30;;;2.10;;
78844;SDS011;68195;50.854;2.860;2023-05-10T15:04:51;5.70;;;2.33;;
78844;SDS011;68195;50.854;2.860;2023-05-10T15:07:22;7.72;;;2.38;;
78844;SDS011;68195;50.854;2.860;2023-05-10T15:09:48;5.53;;;2.20;;
78844;SDS011;68195;50.854;2.860;2023-05-10T15:12:16;7.85;;;2.10;;
78844;SDS011;68195;50.854;2.860;2023-05-10T15:14:42;5.07;;;2.10;;
78844;SDS011;68195;50.854;2.860;2023-05-10T15:17:09;5.95;;;2.03;;
78844;SDS011;68195;50.854;2.860;2023-05-10T15:19:35;6.47;;;2.50;;
78844;SDS011;68195;50.854;2.860;2023-05-10T15:22:04;7.35;;;2.72;;
78844;SDS011;68195;50.854;2.860;2023-05-10T15:24:30;7.05;;;3.30;;
78844;SDS011;68195;50.854;2.860;2023-05-10T15:26:56;6.85;;;2.42;;
78844;SDS011;68195;50.854;2.860;2023-05-10T15:29:21;5.28;;;2.55;;
78844;SDS011;68195;50.854;2.860;2023-05-10T15:31:51;7.00;;;2.90;;
78844;SDS011;68195;50.854;2.860;2023-05-10T15:34:19;13.10;;;3.03;;
78844;SDS011;68195;50.854;2.860;2023-05-10T15:36:47;5.38;;;2.45;;
78844;SDS011;68195;50.854;2.860;2023-05-10T15:39:13;10.27;;;2.53;;
78844;SDS011;68195;50.854;2.860;2023-05-10T15:41:38;10.10;;;3.70;;
78844;SDS011;68195;50.854;2.860;2023-05-10T15:44:06;9.63;;;3.00;;
78844;SDS011;68195;50.854;2.860;2023-05-10T15:46:33;8.70;;;3.38;;
78844;SDS011;68195;50.854;2.860;2023-05-10T15:48:59;7.28;;;2.75;;
78844;SDS011;68195;50.854;2.860;2023-05-10T15:51:24;5.70;;;2.40;;
78844;SDS011;68195;50.854;2.860;2023-05-10T15:53:50;5.50;;;2.72;;
78844;SDS011;68195;50.854;2.860;2023-05-10T15:56:16;3.22;;;2.10;;
78844;SDS011;68195;50.854;2.860;2023-05-10T15:58:41;6.93;;;2.30;;
78844;SDS011;68195;50.854;2.860;2023-05-10T16:01:07;4.68;;;1.98;;
78844;SDS011;68195;50.854;2.860;2023-05-10T16:03:34;6.85;;;2.15;;
78844;SDS011;68195;50.854;2.860;2023-05-10T16:05:59;4.78;;;2.35;;
78844;SDS011;68195;50.854;2.860;2023-05-10T16:08:25;6.72;;;2.67;;
78844;SDS011;68195;50.854;2.860;2023-05-10T16:10:52;5.20;;;2.25;;
78844;SDS011;68195;50.854;2.860;2023-05-10T16:13:20;4.85;;;2.28;;
78844;SDS011;68195;50.854;2.860;2023-05-10T16:15:45;3.97;;;2.30;;
78844;SDS011;68195;50.854;2.860;2023-05-10T16:18:13;4.43;;;2.20;;
78844;SDS011;68195;50.854;2.860;2023-05-10T16:20:38;4.47;;;2.35;;
78844;SDS011;68195;50.854;2.860;2023-05-10T16:23:05;5.45;;;2.95;;
78844;SDS011;68195;50.854;2.860;2023-05-10T16:25:33;6.43;;;2.58;;
78844;SDS011;68195;50.854;2.860;2023-05-10T16:27:59;7.03;;;2.75;;
78844;SDS011;68195;50.854;2.860;2023-05-10T16:30:27;6.63;;;2.63;;
78844;SDS011;68195;50.854;2.860;2023-05-10T16:32:55;6.05;;;2.20;;
78844;SDS011;68195;50.854;2.860;2023-05-10T16:35:22;4.93;;;2.67;;
78844;SDS011;68195;50.854;2.860;2023-05-10T16:37:48;3.55;;;2.20;;
78844;SDS011;68195;50.854;2.860;2023-05-10T16:40:13;6.57;;;2.13;;
78844;SDS011;68195;50.854;2.860;2023-05-10T16:42:39;5.80;;;4.03;;
78844;SDS011;68195;50.854;2.860;2023-05-10T16:45:05;5.05;;;2.88;;
78844;SDS011;68195;50.854;2.860;2023-05-10T16:47:36;8.35;;;2.63;;
78844;SDS011;68195;50.854;2.860;2023-05-10T16:50:03;5.32;;;2.83;;
78844;SDS011;68195;50.854;2.860;2023-05-10T16:52:31;5.90;;;3.13;;
78844;SDS011;68195;50.854;2.860;2023-05-10T16:54:57;7.35;;;2.78;;
78844;SDS011;68195;50.854;2.860;2023-05-10T16:57:23;9.20;;;3.05;;
78844;SDS011;68195;50.854;2.860;2023-05-10T16:59:51;4.50;;;2.47;;
78844;SDS011;68195;50.854;2.860;2023-05-10T17:02:20;10.02;;;3.70;;
78844;SDS011;68195;50.854;2.860;2023-05-10T17:04:46;6.43;;;2.67;;
78844;SDS011;68195;50.854;2.860;2023-05-10T17:07:11;6.05;;;3.38;;
78844;SDS011;68195;50.854;2.860;2023-05-10T17:09:37;8.02;;;3.20;;
78844;SDS011;68195;50.854;2.860;2023-05-10T17:12:03;6.57;;;2.90;;
78844;SDS011;68195;50.854;2.860;2023-05-10T17:14:31;4.55;;;2.53;;
78844;SDS011;68195;50.854;2.860;2023-05-10T17:16:59;8.88;;;2.42;;
78844;SDS011;68195;50.854;2.860;2023-05-10T17:19:24;6.05;;;2.42;;
78844;SDS011;68195;50.854;2.860;2023-05-10T17:21:50;10.23;;;2.75;;
78844;SDS011;68195;50.854;2.860;2023-05-10T17:24:17;8.77;;;2.72;;
78844;SDS011;68195;50.854;2.860;2023-05-10T17:26:48;7.25;;;2.40;;
78844;SDS011;68195;50.854;2.860;2023-05-10T17:29:19;5.43;;;2.40;;
78844;SDS011;68195;50.854;2.860;2023-05-10T17:31:44;8.40;;;2.40;;
78844;SDS011;68195;50.854;2.860;2023-05-10T17:34:12;8.32;;;2.38;;
78844;SDS011;68195;50.854;2.860;2023-05-10T17:36:38;7.80;;;2.88;;
78844;SDS011;68195;50.854;2.860;2023-05-10T17:39:08;5.30;;;2.65;;
78844;SDS011;68195;50.854;2.860;2023-05-10T17:41:36;6.53;;;2.30;;
78844;SDS011;68195;50.854;2.860;2023-05-10T17:44:04;5.35;;;2.25;;